Apison, Tennessee
Current Conditions -  °F | °C
As of 2:53 PM on Friday 21 Nov 2014 (Local Time) from KCHA Reporting Station
Few Clouds Few Clouds  
Wind Chill: 13°   Ceiling: Unl
Heat Index: 13°   Visibility: 10mi
Dew Point: -4°   Wind: 6mph
Humidity: 30%   Direction: 20°NNE
Pressure: 30.39"   Gusts: NA
Location:  35.02°N, 85.02°W
Report Text: KCHA 211953Z 02005KT 10SM FEW150 FEW250 13/M04 A3039 RMK AO2 SLP294 T01281044
Loading
Personal Weather Stations






























Interactive Weather Map New forecast layout! Learn more

10-Day Weather Forecast

Advertisements
Track Severe Weather on mobile